Time;durP1;ratioP1;P1;durP2;ratioP2;P2;SDS_P1;SDS_P2;PMS_P1;PMS_P2;Temp;Humidity;BMP_temperature;BMP_pressure;BME280_temperature;BME280_humidity;BME280_pressure;Samples;Min_cycle;Max_cycle;Signal;HPM_P1;HPM_P2
2021/10/14 00:00:09;;;;;;;9.13;2.95;;;;;;;;;;5094918;28;20068;-84
2021/10/14 00:02:36;;;;;;;5.57;2.72;;;;;;;;;;5094888;28;20039;-87
2021/10/14 00:05:03;;;;;;;6.82;3.53;;;;;;;;;;5093826;28;20125;-87
2021/10/14 00:07:30;;;;;;;5.82;2.72;;;;;;;;;;5094913;28;20024;-85
2021/10/14 00:09:56;;;;;;;6.03;3.13;;;;;;;;;;5094708;28;20024;-86
2021/10/14 00:12:23;;;;;;;7.70;3.58;;;;;;;;;;5094762;28;20028;-84
2021/10/14 00:14:49;;;;;;;7.32;3.83;;;;;;;;;;5095140;28;20419;-86
2021/10/14 00:17:15;;;;;;;6.72;3.38;;;;;;;;;;5094767;28;20080;-86
2021/10/14 00:19:41;;;;;;;7.28;2.75;;;;;;;;;;5094617;28;20024;-85
2021/10/14 00:22:07;;;;;;;6.07;2.80;;;;;;;;;;5095787;28;20039;-86
2021/10/14 00:24:34;;;;;;;4.80;2.63;;;;;;;;;;5094696;28;20480;-84
2021/10/14 00:27:00;;;;;;;7.25;3.03;;;;;;;;;;5095948;28;20507;-84
2021/10/14 00:29:27;;;;;;;5.63;3.08;;;;;;;;;;5095860;28;20028;-85
2021/10/14 00:31:53;;;;;;;7.85;3.55;;;;;;;;;;5095681;28;20111;-85
2021/10/14 00:34:19;;;;;;;6.45;3.08;;;;;;;;;;5094449;28;20084;-88
2021/10/14 00:36:45;;;;;;;7.00;2.65;;;;;;;;;;5094332;28;20020;-86
2021/10/14 00:39:12;;;;;;;8.10;3.42;;;;;;;;;;5094369;28;20431;-85
2021/10/14 00:41:39;;;;;;;8.60;3.28;;;;;;;;;;5095414;28;20538;-85
2021/10/14 00:44:05;;;;;;;6.50;2.80;;;;;;;;;;5095873;28;20029;-85
2021/10/14 00:46:32;;;;;;;6.70;3.20;;;;;;;;;;5095856;28;20055;-85
2021/10/14 00:48:58;;;;;;;8.38;2.88;;;;;;;;;;5095433;28;20028;-87
2021/10/14 00:51:24;;;;;;;6.78;2.95;;;;;;;;;;5093944;28;20428;-87
2021/10/14 00:53:50;;;;;;;7.60;3.35;;;;;;;;;;5095771;28;20024;-85
2021/10/14 00:56:17;;;;;;;5.75;2.92;;;;;;;;;;5093744;28;20051;-90
2021/10/14 00:58:43;;;;;;;5.28;3.10;;;;;;;;;;5095711;28;20035;-85
2021/10/14 01:01:10;;;;;;;6.82;2.80;;;;;;;;;;5094920;28;20051;-86
2021/10/14 01:03:36;;;;;;;5.65;2.72;;;;;;;;;;5095591;28;20028;-87
2021/10/14 01:06:03;;;;;;;7.10;3.10;;;;;;;;;;5095024;28;20103;-88
2021/10/14 01:08:29;;;;;;;6.10;2.85;;;;;;;;;;5093739;28;20039;-86
2021/10/14 01:10:56;;;;;;;5.10;2.63;;;;;;;;;;5093722;28;20549;-86
2021/10/14 01:13:22;;;;;;;6.63;3.25;;;;;;;;;;5095326;28;20020;-87
2021/10/14 01:15:49;;;;;;;7.75;2.95;;;;;;;;;;5093347;28;20056;-86
2021/10/14 01:18:15;;;;;;;10.40;3.33;;;;;;;;;;5094770;28;20024;-85
2021/10/14 01:20:42;;;;;;;5.45;2.92;;;;;;;;;;5095322;28;20469;-85
2021/10/14 01:23:08;;;;;;;5.65;3.00;;;;;;;;;;5093335;28;20032;-86
2021/10/14 01:25:34;;;;;;;5.07;2.97;;;;;;;;;;5094644;28;20099;-86
2021/10/14 01:28:01;;;;;;;7.13;2.90;;;;;;;;;;5093334;28;20028;-86
2021/10/14 01:30:27;;;;;;;6.93;2.50;;;;;;;;;;5094568;28;20024;-86
2021/10/14 01:32:53;;;;;;;5.53;2.58;;;;;;;;;;5094531;28;20031;-85
2021/10/14 01:35:20;;;;;;;7.53;2.70;;;;;;;;;;5093253;28;20031;-86
2021/10/14 01:37:47;;;;;;;5.78;2.67;;;;;;;;;;5093171;28;20024;-85
2021/10/14 01:40:13;;;;;;;6.03;3.00;;;;;;;;;;5092970;28;20024;-85
2021/10/14 01:42:39;;;;;;;6.72;3.00;;;;;;;;;;5094473;28;20370;-85
2021/10/14 01:45:06;;;;;;;5.55;2.45;;;;;;;;;;5094274;28;20028;-85
2021/10/14 01:47:34;;;;;;;6.78;2.53;;;;;;;;;;5094243;28;20028;-86
2021/10/14 01:50:00;;;;;;;5.38;2.67;;;;;;;;;;5092939;28;20169;-85
2021/10/14 01:52:26;;;;;;;5.05;2.85;;;;;;;;;;5092788;28;20496;-86
2021/10/14 01:54:53;;;;;;;5.32;2.70;;;;;;;;;;5092522;28;20464;-86
2021/10/14 01:57:19;;;;;;;5.80;2.33;;;;;;;;;;5092768;28;20427;-86
2021/10/14 01:59:45;;;;;;;5.18;2.67;;;;;;;;;;5092696;28;20020;-85
2021/10/14 02:02:11;;;;;;;5.40;2.13;;;;;;;;;;5092517;28;20036;-86
2021/10/14 02:04:37;;;;;;;5.00;2.00;;;;;;;;;;5092593;28;20468;-85
2021/10/14 02:07:04;;;;;;;5.55;2.65;;;;;;;;;;5094404;28;20024;-85
2021/10/14 02:09:30;;;;;;;4.20;2.53;;;;;;;;;;5094480;28;20487;-85
2021/10/14 02:11:57;;;;;;;5.90;2.70;;;;;;;;;;5092651;28;20020;-86
2021/10/14 02:14:23;;;;;;;8.10;2.85;;;;;;;;;;5094481;28;20028;-85
2021/10/14 02:16:50;;;;;;;4.95;2.72;;;;;;;;;;5092529;28;20459;-85
2021/10/14 02:19:16;;;;;;;6.30;2.60;;;;;;;;;;5092501;28;20024;-85
2021/10/14 02:21:42;;;;;;;5.78;2.78;;;;;;;;;;5093558;28;20468;-84
2021/10/14 02:24:09;;;;;;;6.03;2.55;;;;;;;;;;5094298;28;20521;-85
2021/10/14 02:26:35;;;;;;;4.65;2.63;;;;;;;;;;5093135;28;20468;-86
2021/10/14 02:29:01;;;;;;;4.28;2.53;;;;;;;;;;5092476;28;20039;-85
2021/10/14 02:31:28;;;;;;;6.75;2.28;;;;;;;;;;5093711;28;20024;-88
2021/10/14 02:33:54;;;;;;;5.80;2.47;;;;;;;;;;5093638;28;20035;-85
2021/10/14 02:36:20;;;;;;;11.15;3.20;;;;;;;;;;5094191;28;20109;-85
2021/10/14 02:38:47;;;;;;;6.32;2.47;;;;;;;;;;5092361;28;20036;-88
2021/10/14 02:41:13;;;;;;;6.07;2.45;;;;;;;;;;5092380;28;20055;-85
2021/10/14 02:43:39;;;;;;;6.80;2.60;;;;;;;;;;5092334;28;20035;-86
2021/10/14 02:46:06;;;;;;;7.30;2.53;;;;;;;;;;5093752;28;20024;-90
2021/10/14 02:48:32;;;;;;;6.10;2.78;;;;;;;;;;5094077;28;20024;-86
2021/10/14 02:50:58;;;;;;;6.28;2.50;;;;;;;;;;5094210;28;20016;-89
2021/10/14 02:53:25;;;;;;;4.78;2.20;;;;;;;;;;5092355;28;20112;-85
2021/10/14 02:55:51;;;;;;;4.32;2.33;;;;;;;;;;5093237;28;20123;-91
2021/10/14 02:58:17;;;;;;;7.20;2.80;;;;;;;;;;5093557;28;20029;-85
2021/10/14 03:00:44;;;;;;;5.22;2.50;;;;;;;;;;5092434;28;20038;-90
2021/10/14 03:03:10;;;;;;;6.15;2.63;;;;;;;;;;5092181;28;20043;-85
2021/10/14 03:05:36;;;;;;;6.50;3.13;;;;;;;;;;5093477;28;20027;-85
2021/10/14 03:08:03;;;;;;;6.72;3.13;;;;;;;;;;5093558;28;20036;-85
2021/10/14 03:10:29;;;;;;;6.15;2.80;;;;;;;;;;5092126;28;20024;-85
2021/10/14 03:12:55;;;;;;;6.15;3.13;;;;;;;;;;5092354;28;20024;-86
2021/10/14 03:15:22;;;;;;;8.50;2.80;;;;;;;;;;5092181;28;20062;-84
2021/10/14 03:17:48;;;;;;;7.43;3.25;;;;;;;;;;5095413;28;20035;-85
2021/10/14 03:20:14;;;;;;;5.88;3.00;;;;;;;;;;5093733;28;20039;-86
2021/10/14 03:22:41;;;;;;;6.05;2.88;;;;;;;;;;5093466;28;20036;-85
2021/10/14 03:25:07;;;;;;;11.32;2.97;;;;;;;;;;5092066;28;20059;-85
2021/10/14 03:27:33;;;;;;;6.00;2.83;;;;;;;;;;5092157;28;20066;-85
2021/10/14 03:30:00;;;;;;;5.53;2.42;;;;;;;;;;5092063;28;20027;-84
2021/10/14 03:32:26;;;;;;;6.28;2.92;;;;;;;;;;5093305;28;20039;-85
2021/10/14 03:34:52;;;;;;;13.98;3.00;;;;;;;;;;5093349;28;20043;-85
2021/10/14 03:37:19;;;;;;;6.55;3.28;;;;;;;;;;5093013;28;20035;-85
2021/10/14 03:39:45;;;;;;;7.50;3.55;;;;;;;;;;5095096;28;20020;-85
2021/10/14 03:42:13;;;;;;;9.73;2.88;;;;;;;;;;5095227;28;20508;-85
2021/10/14 03:44:40;;;;;;;8.35;2.80;;;;;;;;;;5095228;28;20020;-85
2021/10/14 03:47:06;;;;;;;6.93;2.88;;;;;;;;;;5095248;28;20032;-85
2021/10/14 03:49:32;;;;;;;7.20;3.00;;;;;;;;;;5095166;28;20020;-85
2021/10/14 03:51:59;;;;;;;6.22;3.17;;;;;;;;;;5095350;28;20443;-85
2021/10/14 03:54:25;;;;;;;7.43;3.65;;;;;;;;;;5094991;28;20038;-85
2021/10/14 03:56:51;;;;;;;7.70;3.00;;;;;;;;;;5094927;28;20047;-85
2021/10/14 03:59:17;;;;;;;6.07;3.35;;;;;;;;;;5094998;28;20028;-85
2021/10/14 04:01:44;;;;;;;8.40;3.03;;;;;;;;;;5094773;28;20395;-85
2021/10/14 04:04:10;;;;;;;5.65;2.97;;;;;;;;;;5094986;28;20109;-85
2021/10/14 04:06:36;;;;;;;5.03;3.08;;;;;;;;;;5096115;28;20421;-85
2021/10/14 04:09:02;;;;;;;6.20;2.65;;;;;;;;;;5095943;28;20043;-85
2021/10/14 04:11:28;;;;;;;5.05;2.80;;;;;;;;;;5094792;28;20067;-85
2021/10/14 04:13:55;;;;;;;4.78;2.60;;;;;;;;;;5094772;28;20020;-85
2021/10/14 04:16:21;;;;;;;6.65;3.17;;;;;;;;;;5094645;28;20035;-85
2021/10/14 04:18:47;;;;;;;6.07;2.58;;;;;;;;;;5094713;28;20066;-84
2021/10/14 04:21:14;;;;;;;6.28;3.08;;;;;;;;;;5096346;28;20020;-85
2021/10/14 04:23:43;;;;;;;5.35;2.33;;;;;;;;;;5094508;28;20032;-85
2021/10/14 04:26:10;;;;;;;6.95;3.28;;;;;;;;;;5094482;28;20384;-85
2021/10/14 04:28:36;;;;;;;6.90;3.15;;;;;;;;;;5094575;28;20028;-88
2021/10/14 04:31:02;;;;;;;4.32;2.35;;;;;;;;;;5094351;28;20024;-83
2021/10/14 04:33:29;;;;;;;7.45;2.45;;;;;;;;;;5094235;28;20111;-83
2021/10/14 04:35:56;;;;;;;6.25;2.63;;;;;;;;;;5094249;28;20039;-84
2021/10/14 04:38:22;;;;;;;11.80;2.90;;;;;;;;;;5094201;28;20108;-84
2021/10/14 04:40:48;;;;;;;6.50;3.40;;;;;;;;;;5094165;28;20028;-84
2021/10/14 04:43:14;;;;;;;10.30;4.72;;;;;;;;;;5095826;28;20032;-84
2021/10/14 04:45:40;;;;;;;5.90;2.53;;;;;;;;;;5094049;28;20411;-84
2021/10/14 04:48:06;;;;;;;6.18;3.20;;;;;;;;;;5095295;28;20027;-85
2021/10/14 04:50:33;;;;;;;10.43;3.75;;;;;;;;;;5093409;28;20108;-84
2021/10/14 04:52:59;;;;;;;6.35;3.15;;;;;;;;;;5095397;28;20047;-85
2021/10/14 04:55:25;;;;;;;16.70;4.32;;;;;;;;;;5093643;28;20135;-88
2021/10/14 04:57:52;;;;;;;6.47;3.38;;;;;;;;;;5094056;28;20024;-85
2021/10/14 05:00:18;;;;;;;11.07;3.90;;;;;;;;;;5095549;28;20020;-86
2021/10/14 05:02:46;;;;;;;7.13;3.50;;;;;;;;;;5094922;28;20562;-87
2021/10/14 05:05:12;;;;;;;6.70;3.10;;;;;;;;;;5093744;28;20024;-88
2021/10/14 05:07:38;;;;;;;12.13;3.50;;;;;;;;;;5095819;28;20028;-88
2021/10/14 05:10:05;;;;;;;11.88;3.70;;;;;;;;;;5093671;28;20464;-87
2021/10/14 05:12:31;;;;;;;6.68;3.58;;;;;;;;;;5096729;28;20028;-87
2021/10/14 05:14:57;;;;;;;8.25;3.03;;;;;;;;;;5095498;28;20035;-90
2021/10/14 05:17:23;;;;;;;6.38;2.65;;;;;;;;;;5089784;28;20027;-84
2021/10/14 05:19:50;;;;;;;6.88;3.42;;;;;;;;;;5093162;28;20487;-87
2021/10/14 05:22:16;;;;;;;6.93;3.70;;;;;;;;;;5093050;28;20032;-87
2021/10/14 05:24:42;;;;;;;7.18;3.22;;;;;;;;;;5093129;28;20514;-86
2021/10/14 05:27:08;;;;;;;8.27;3.60;;;;;;;;;;5093153;28;20480;-87
2021/10/14 05:29:34;;;;;;;7.00;3.10;;;;;;;;;;5093304;28;20031;-87
2021/10/14 05:32:00;;;;;;;7.88;3.28;;;;;;;;;;5093024;28;20016;-86
2021/10/14 05:34:26;;;;;;;7.22;3.65;;;;;;;;;;5093066;28;20039;-84
2021/10/14 05:36:52;;;;;;;9.30;4.07;;;;;;;;;;5094812;28;20030;-84
2021/10/14 05:39:18;;;;;;;9.90;4.03;;;;;;;;;;5094279;28;20455;-85
2021/10/14 05:41:44;;;;;;;7.15;3.53;;;;;;;;;;5094072;28;20036;-84
2021/10/14 05:44:11;;;;;;;7.50;3.30;;;;;;;;;;5092824;28;20426;-85
2021/10/14 05:46:37;;;;;;;8.32;4.50;;;;;;;;;;5094529;28;20020;-86
2021/10/14 05:49:03;;;;;;;10.60;4.10;;;;;;;;;;5092773;28;20024;-86
2021/10/14 05:51:29;;;;;;;9.77;3.42;;;;;;;;;;5093315;28;20123;-87
2021/10/14 05:53:55;;;;;;;8.00;4.20;;;;;;;;;;5093075;28;20020;-88
2021/10/14 05:56:23;;;;;;;7.75;3.83;;;;;;;;;;5093983;28;20090;-86
2021/10/14 05:58:49;;;;;;;5.90;3.03;;;;;;;;;;5092982;28;20116;-86
2021/10/14 06:01:16;;;;;;;9.15;4.32;;;;;;;;;;5093720;28;20032;-88
2021/10/14 06:03:42;;;;;;;9.93;3.53;;;;;;;;;;5092632;28;20476;-88
2021/10/14 06:06:08;;;;;;;13.35;3.88;;;;;;;;;;5092873;28;20107;-87
2021/10/14 06:08:34;;;;;;;7.85;3.17;;;;;;;;;;5092753;28;20031;-88
2021/10/14 06:11:01;;;;;;;8.52;3.92;;;;;;;;;;5092823;28;20023;-88
2021/10/14 06:13:27;;;;;;;7.25;4.00;;;;;;;;;;5093749;28;20024;-85
2021/10/14 06:15:53;;;;;;;7.13;3.67;;;;;;;;;;5092367;28;20032;-85
2021/10/14 06:18:19;;;;;;;8.35;3.83;;;;;;;;;;5092602;28;20032;-87
2021/10/14 06:20:45;;;;;;;9.32;4.57;;;;;;;;;;5092665;28;20112;-88
2021/10/14 06:23:11;;;;;;;9.93;4.57;;;;;;;;;;5092382;28;20035;-87
2021/10/14 06:25:37;;;;;;;9.98;4.70;;;;;;;;;;5093811;28;20027;-87
2021/10/14 06:28:03;;;;;;;10.80;4.93;;;;;;;;;;5092279;28;20063;-88
2021/10/14 06:30:32;;;;;;;9.55;4.93;;;;;;;;;;5092296;28;20032;-87
2021/10/14 06:32:58;;;;;;;8.85;5.20;;;;;;;;;;5093990;28;20024;-87
2021/10/14 06:35:24;;;;;;;9.13;4.63;;;;;;;;;;5093556;28;20031;-90
2021/10/14 06:37:50;;;;;;;8.43;4.57;;;;;;;;;;5092162;28;20028;-87
2021/10/14 06:40:17;;;;;;;10.88;4.07;;;;;;;;;;5092007;28;20062;-87
2021/10/14 06:42:43;;;;;;;8.00;4.25;;;;;;;;;;5091967;28;20127;-87
2021/10/14 06:45:09;;;;;;;8.27;4.25;;;;;;;;;;5091976;28;20021;-85
2021/10/14 06:47:36;;;;;;;9.35;4.20;;;;;;;;;;5093351;28;20095;-85
2021/10/14 06:50:03;;;;;;;8.65;2.90;;;;;;;;;;5091913;28;20032;-84
2021/10/14 06:52:29;;;;;;;5.18;2.60;;;;;;;;;;5091964;28;20107;-85
2021/10/14 06:54:56;;;;;;;6.20;2.70;;;;;;;;;;5092929;28;20024;-85
2021/10/14 06:57:22;;;;;;;5.53;2.40;;;;;;;;;;5091910;28;20039;-85
2021/10/14 06:59:49;;;;;;;5.13;2.58;;;;;;;;;;5091958;28;20028;-86
2021/10/14 07:02:15;;;;;;;5.55;2.95;;;;;;;;;;5091684;28;20032;-87
2021/10/14 07:04:41;;;;;;;4.18;2.42;;;;;;;;;;5091998;28;20020;-87
2021/10/14 07:07:07;;;;;;;6.70;3.20;;;;;;;;;;5093531;28;20032;-88
2021/10/14 07:09:33;;;;;;;5.78;2.72;;;;;;;;;;5091915;28;20027;-88
2021/10/14 07:12:05;;;;;;;6.45;2.97;;;;;;;;;;5091812;28;20035;-87
2021/10/14 07:14:32;;;;;;;6.95;2.60;;;;;;;;;;5094837;28;20021;-87
2021/10/14 07:16:58;;;;;;;5.78;2.47;;;;;;;;;;5096944;28;20387;-88
2021/10/14 07:19:24;;;;;;;5.68;2.58;;;;;;;;;;5095573;28;20020;-87
2021/10/14 07:21:50;;;;;;;10.05;2.40;;;;;;;;;;5095450;28;20036;-86
2021/10/14 07:24:17;;;;;;;7.00;3.10;;;;;;;;;;5095416;28;20032;-87
2021/10/14 07:26:44;;;;;;;8.00;3.45;;;;;;;;;;5097109;28;20073;-88
2021/10/14 07:29:10;;;;;;;10.88;3.70;;;;;;;;;;5095548;28;20046;-88
2021/10/14 07:31:36;;;;;;;7.88;3.92;;;;;;;;;;5095528;28;20024;-87
2021/10/14 07:34:02;;;;;;;10.45;5.15;;;;;;;;;;5092444;28;20032;-87
2021/10/14 07:36:29;;;;;;;7.15;4.05;;;;;;;;;;5096610;28;20436;-87
2021/10/14 07:38:55;;;;;;;6.75;3.85;;;;;;;;;;5095196;28;20494;-88
2021/10/14 07:41:21;;;;;;;6.80;3.30;;;;;;;;;;5095092;28;20453;-87
2021/10/14 07:43:47;;;;;;;6.93;3.20;;;;;;;;;;5095241;28;20028;-88
2021/10/14 07:46:13;;;;;;;6.25;2.60;;;;;;;;;;5095028;28;20054;-88
2021/10/14 07:48:39;;;;;;;5.28;2.42;;;;;;;;;;5095225;28;20433;-88
2021/10/14 07:51:07;;;;;;;6.60;2.55;;;;;;;;;;5095038;28;20117;-88
2021/10/14 07:53:33;;;;;;;5.70;2.67;;;;;;;;;;5095067;28;20494;-88
2021/10/14 07:55:59;;;;;;;5.72;2.90;;;;;;;;;;5094642;28;20052;-88
2021/10/14 07:58:25;;;;;;;7.57;2.55;;;;;;;;;;5094731;28;20388;-87
2021/10/14 08:00:52;;;;;;;5.03;2.15;;;;;;;;;;5094867;28;20031;-86
2021/10/14 08:03:18;;;;;;;7.38;2.85;;;;;;;;;;5094705;28;20476;-87
2021/10/14 08:05:44;;;;;;;4.70;2.35;;;;;;;;;;5095777;28;20026;-89
2021/10/14 08:08:10;;;;;;;5.18;2.38;;;;;;;;;;5094686;28;20032;-86
2021/10/14 08:10:36;;;;;;;5.10;2.75;;;;;;;;;;5094593;28;20069;-86
2021/10/14 08:13:03;;;;;;;4.28;2.30;;;;;;;;;;5094138;28;20032;-86
2021/10/14 08:15:29;;;;;;;4.38;2.10;;;;;;;;;;5094335;28;20032;-88
2021/10/14 08:17:55;;;;;;;5.35;2.63;;;;;;;;;;5094358;28;20024;-87
2021/10/14 08:20:21;;;;;;;5.72;2.55;;;;;;;;;;5094346;28;20032;-86
2021/10/14 08:22:49;;;;;;;6.65;2.33;;;;;;;;;;5094329;28;20541;-86
2021/10/14 08:25:15;;;;;;;3.33;2.00;;;;;;;;;;5093328;28;20020;-86
2021/10/14 08:27:42;;;;;;;4.88;2.30;;;;;;;;;;5094382;28;20076;-86
2021/10/14 08:30:09;;;;;;;4.60;2.53;;;;;;;;;;5095387;28;20091;-88
2021/10/14 08:32:35;;;;;;;3.78;2.40;;;;;;;;;;5094192;28;20377;-86
2021/10/14 08:35:01;;;;;;;5.60;2.60;;;;;;;;;;5094045;28;20161;-86
2021/10/14 08:37:29;;;;;;;4.40;2.28;;;;;;;;;;5095324;28;20418;-86
2021/10/14 08:39:55;;;;;;;3.55;1.80;;;;;;;;;;5094028;28;20384;-86
2021/10/14 08:42:22;;;;;;;3.92;2.00;;;;;;;;;;5093865;28;20043;-87
2021/10/14 08:44:48;;;;;;;3.45;2.00;;;;;;;;;;5093939;28;20593;-86
2021/10/14 08:47:15;;;;;;;3.42;1.73;;;;;;;;;;5095166;28;20028;-86
2021/10/14 08:49:46;;;;;;;4.28;2.08;;;;;;;;;;5093854;28;20020;-85
2021/10/14 08:52:13;;;;;;;3.58;1.80;;;;;;;;;;5093684;28;20164;-86
2021/10/14 08:54:40;;;;;;;6.30;2.20;;;;;;;;;;5094009;28;20472;-86
2021/10/14 08:57:06;;;;;;;1.75;0.90;;;;;;;;;;5093116;28;20064;-86
2021/10/14 08:59:32;;;;;;;2.70;0.95;;;;;;;;;;5094091;28;20544;-86
2021/10/14 09:02:08;;;;;;;3.75;1.00;;;;;;;;;;5093199;28;20119;-86
2021/10/14 09:04:58;;;;;;;2.65;1.10;;;;;;;;;;5093569;28;20034;-86
2021/10/14 09:07:26;;;;;;;10.05;1.38;;;;;;;;;;5095060;28;20020;-87
2021/10/14 09:09:52;;;;;;;4.60;1.20;;;;;;;;;;5093443;28;20074;-87
2021/10/14 09:12:21;;;;;;;3.55;1.80;;;;;;;;;;5093290;28;20032;-87
2021/10/14 09:14:54;;;;;;;3.17;1.30;;;;;;;;;;5093337;28;20024;-88
2021/10/14 09:17:40;;;;;;;4.35;1.10;;;;;;;;;;5093346;28;20056;-86
2021/10/14 09:20:25;;;;;;;2.63;1.15;;;;;;;;;;5093096;28;20028;-85
2021/10/14 09:22:52;;;;;;;2.85;1.00;;;;;;;;;;5093238;28;20063;-86
2021/10/14 09:25:28;;;;;;;2.28;1.08;;;;;;;;;;5093288;28;20028;-85
2021/10/14 09:28:05;;;;;;;3.70;1.10;;;;;;;;;;5089777;28;20073;-85
2021/10/14 09:30:31;;;;;;;2.13;1.20;;;;;;;;;;5092582;28;20028;-85
2021/10/14 09:32:57;;;;;;;2.45;1.00;;;;;;;;;;5092949;28;20032;-86
2021/10/14 09:35:26;;;;;;;1.60;0.80;;;;;;;;;;5092172;28;20113;-85
2021/10/14 09:37:52;;;;;;;3.08;1.35;;;;;;;;;;5092535;28;20020;-87
2021/10/14 09:40:18;;;;;;;2.72;0.90;;;;;;;;;;5092568;28;20028;-87
2021/10/14 09:42:53;;;;;;;2.10;0.98;;;;;;;;;;5092874;28;20392;-87
2021/10/14 09:45:32;;;;;;;2.33;1.10;;;;;;;;;;5092826;28;20039;-86
2021/10/14 09:48:05;;;;;;;2.78;0.85;;;;;;;;;;5094199;28;20028;-87
2021/10/14 09:50:32;;;;;;;2.40;1.10;;;;;;;;;;5090696;28;20024;-87
2021/10/14 09:53:02;;;;;;;4.20;1.08;;;;;;;;;;5092497;28;20135;-87
2021/10/14 09:55:28;;;;;;;2.13;0.98;;;;;;;;;;5093553;28;20044;-85
2021/10/14 09:57:55;;;;;;;2.95;1.15;;;;;;;;;;5094005;28;20031;-86
2021/10/14 10:00:22;;;;;;;1.90;0.82;;;;;;;;;;5090364;28;20038;-86
2021/10/14 10:02:48;;;;;;;3.75;1.00;;;;;;;;;;5091236;28;20020;-86
2021/10/14 10:05:15;;;;;;;4.18;1.00;;;;;;;;;;5092263;28;20025;-86
2021/10/14 10:07:42;;;;;;;3.28;0.82;;;;;;;;;;5091558;28;20095;-86
2021/10/14 10:10:09;;;;;;;2.33;1.05;;;;;;;;;;5092272;28;20024;-86
2021/10/14 10:12:37;;;;;;;2.50;0.80;;;;;;;;;;5093325;28;20069;-86
2021/10/14 10:15:03;;;;;;;1.92;0.90;;;;;;;;;;5094020;28;20089;-86
2021/10/14 10:17:39;;;;;;;1.33;0.60;;;;;;;;;;5092941;28;20024;-86
2021/10/14 10:20:07;;;;;;;2.25;0.60;;;;;;;;;;5092217;28;20030;-85
2021/10/14 10:22:36;;;;;;;3.05;1.40;;;;;;;;;;5092274;28;20035;-86
2021/10/14 10:25:21;;;;;;;3.30;1.65;;;;;;;;;;5092342;28;20032;-85
2021/10/14 10:27:47;;;;;;;3.35;1.58;;;;;;;;;;5093397;28;20028;-85
2021/10/14 10:30:28;;;;;;;3.10;2.00;;;;;;;;;;5092041;28;20067;-86
2021/10/14 10:32:54;;;;;;;4.95;1.92;;;;;;;;;;5092016;28;20042;-86
2021/10/14 10:35:40;;;;;;;3.53;1.20;;;;;;;;;;5093691;28;20093;-84
2021/10/14 10:38:14;;;;;;;1.40;0.70;;;;;;;;;;5091949;28;20020;-86
2021/10/14 10:40:41;;;;;;;1.73;0.63;;;;;;;;;;5092125;28;20025;-85
2021/10/14 10:43:08;;;;;;;1.30;0.55;;;;;;;;;;5092030;28;20024;-85
2021/10/14 10:45:57;;;;;;;5.45;1.02;;;;;;;;;;5092060;28;20392;-85
2021/10/14 10:48:36;;;;;;;2.90;0.73;;;;;;;;;;5093243;28;20035;-84
2021/10/14 10:51:04;;;;;;;1.98;0.80;;;;;;;;;;5096125;28;20540;-85
2021/10/14 10:53:48;;;;;;;10.77;5.13;;;;;;;;;;5096030;28;20059;-85
2021/10/14 10:56:34;;;;;;;2.92;1.20;;;;;;;;;;5096816;28;20075;-85
2021/10/14 10:59:00;;;;;;;1.25;0.57;;;;;;;;;;5094957;28;20038;-84
2021/10/14 11:01:26;;;;;;;1.58;0.70;;;;;;;;;;5095701;28;20024;-84
2021/10/14 11:03:58;;;;;;;2.20;0.80;;;;;;;;;;5097094;28;20028;-84
2021/10/14 11:06:24;;;;;;;2.47;1.10;;;;;;;;;;5097174;28;20107;-84
2021/10/14 11:08:51;;;;;;;1.42;0.68;;;;;;;;;;5095915;28;20544;-85
2021/10/14 11:11:19;;;;;;;2.03;0.73;;;;;;;;;;5095112;28;20058;-85
2021/10/14 11:13:49;;;;;;;6.35;1.08;;;;;;;;;;5095378;28;20032;-85
2021/10/14 11:16:16;;;;;;;1.17;0.60;;;;;;;;;;5095196;28;20052;-85
2021/10/14 11:18:44;;;;;;;1.73;0.77;;;;;;;;;;5095566;28;20488;-85
2021/10/14 11:21:11;;;;;;;2.08;0.75;;;;;;;;;;5095649;28;20020;-86
2021/10/14 11:23:42;;;;;;;1.48;0.82;;;;;;;;;;5095790;28;20384;-85
2021/10/14 11:26:10;;;;;;;2.25;1.08;;;;;;;;;;5096829;28;20017;-85
2021/10/14 11:28:55;;;;;;;3.10;1.45;;;;;;;;;;5095338;28;20024;-84
2021/10/14 11:31:25;;;;;;;3.28;1.40;;;;;;;;;;5095594;28;20070;-85
2021/10/14 11:33:51;;;;;;;2.63;1.40;;;;;;;;;;5095339;28;20115;-85
2021/10/14 11:36:18;;;;;;;3.05;1.17;;;;;;;;;;5095194;28;20114;-85
2021/10/14 11:38:55;;;;;;;2.40;1.30;;;;;;;;;;5095278;28;20028;-85
2021/10/14 11:41:21;;;;;;;3.67;1.70;;;;;;;;;;5095277;28;20031;-85
2021/10/14 11:43:53;;;;;;;2.78;1.38;;;;;;;;;;5095212;28;20020;-85
2021/10/14 11:46:24;;;;;;;2.67;1.25;;;;;;;;;;5095053;28;20032;-84
2021/10/14 11:48:51;;;;;;;2.08;1.20;;;;;;;;;;5095033;28;20028;-86
2021/10/14 11:51:19;;;;;;;2.83;1.15;;;;;;;;;;5096288;28;20052;-87
2021/10/14 11:53:54;;;;;;;6.22;0.90;;;;;;;;;;5096194;28;20028;-85
2021/10/14 11:56:20;;;;;;;2.72;0.60;;;;;;;;;;5094474;28;20047;-85
2021/10/14 11:58:46;;;;;;;2.25;0.70;;;;;;;;;;5094814;28;20081;-85
2021/10/14 12:01:14;;;;;;;1.00;0.50;;;;;;;;;;5096014;28;20449;-84
2021/10/14 12:03:42;;;;;;;2.30;0.77;;;;;;;;;;5094834;28;20055;-84
2021/10/14 12:06:08;;;;;;;2.50;1.02;;;;;;;;;;5094580;28;20473;-83
2021/10/14 12:08:34;;;;;;;2.10;0.77;;;;;;;;;;5095919;28;20503;-84
2021/10/14 12:11:01;;;;;;;4.10;1.98;;;;;;;;;;5095939;28;20042;-85
2021/10/14 12:13:29;;;;;;;3.35;1.70;;;;;;;;;;5094532;28;20090;-85
2021/10/14 12:16:09;;;;;;;6.63;1.90;;;;;;;;;;5094563;28;20388;-84
2021/10/14 12:18:35;;;;;;;2.95;2.00;;;;;;;;;;5094512;28;20032;-83
2021/10/14 12:21:01;;;;;;;4.78;1.75;;;;;;;;;;5095717;28;20034;-83
2021/10/14 12:23:31;;;;;;;8.15;3.80;;;;;;;;;;5095897;28;20028;-85
2021/10/14 12:26:10;;;;;;;8.15;4.82;;;;;;;;;;5094433;28;20134;-85
2021/10/14 12:28:41;;;;;;;4.30;2.47;;;;;;;;;;5094297;28;20016;-85
2021/10/14 12:31:11;;;;;;;3.38;2.15;;;;;;;;;;5095913;28;20465;-85
2021/10/14 12:33:38;;;;;;;4.38;2.33;;;;;;;;;;5094193;28;20038;-85
2021/10/14 12:36:04;;;;;;;4.22;2.60;;;;;;;;;;5094069;28;20031;-85
2021/10/14 12:38:40;;;;;;;4.90;2.60;;;;;;;;;;5094106;28;20023;-85
2021/10/14 12:41:14;;;;;;;7.03;3.17;;;;;;;;;;5094046;28;20488;-85
2021/10/14 12:43:50;;;;;;;5.93;1.88;;;;;;;;;;5094126;28;20027;-86
2021/10/14 12:51:51;;;;;;;3.42;1.60;;;;;;;;;;5095076;28;20085;-84
2021/10/14 12:54:25;;;;;;;5.32;1.60;;;;;;;;;;5093681;28;20028;-82
2021/10/14 12:56:52;;;;;;;3.58;1.55;;;;;;;;;;5094817;28;20381;-82
2021/10/14 12:59:19;;;;;;;4.30;2.20;;;;;;;;;;5093525;28;20028;-82
2021/10/14 13:01:47;;;;;;;3.03;1.48;;;;;;;;;;5093589;28;20048;-82
2021/10/14 13:04:13;;;;;;;7.22;1.42;;;;;;;;;;5093574;28;20396;-82
2021/10/14 13:06:39;;;;;;;4.82;2.08;;;;;;;;;;5093422;28;20107;-82
2021/10/14 13:09:06;;;;;;;3.42;1.70;;;;;;;;;;5093514;28;20024;-83
2021/10/14 13:11:36;;;;;;;4.15;1.77;;;;;;;;;;5094147;28;20024;-82
2021/10/14 13:14:03;;;;;;;4.75;1.20;;;;;;;;;;5093459;28;20035;-81
2021/10/14 13:16:29;;;;;;;2.50;1.33;;;;;;;;;;5093393;28;20439;-82
2021/10/14 13:18:56;;;;;;;2.40;1.15;;;;;;;;;;5094529;28;20095;-82
2021/10/14 13:21:22;;;;;;;3.13;1.40;;;;;;;;;;5093245;28;20020;-82
2021/10/14 13:23:53;;;;;;;2.30;1.00;;;;;;;;;;5097564;28;20483;-83
2021/10/14 13:26:23;;;;;;;4.53;1.38;;;;;;;;;;5093061;28;20031;-83
2021/10/14 13:28:50;;;;;;;2.33;1.20;;;;;;;;;;5094070;28;20476;-82
2021/10/14 13:31:16;;;;;;;2.33;1.17;;;;;;;;;;5093022;28;20035;-84
2021/10/14 13:33:44;;;;;;;2.72;1.00;;;;;;;;;;5095457;28;20065;-84
2021/10/14 13:36:15;;;;;;;3.28;0.85;;;;;;;;;;5094779;28;20020;-82
2021/10/14 13:38:45;;;;;;;4.15;1.40;;;;;;;;;;5093366;28;20110;-83
2021/10/14 13:41:14;;;;;;;2.55;1.30;;;;;;;;;;5093207;28;20055;-82
2021/10/14 13:43:47;;;;;;;3.33;1.20;;;;;;;;;;5094419;28;20016;-82
2021/10/14 13:46:14;;;;;;;1.85;1.02;;;;;;;;;;5094488;28;20110;-83
2021/10/14 13:48:40;;;;;;;2.63;1.05;;;;;;;;;;5093081;28;20073;-82
2021/10/14 13:51:06;;;;;;;2.50;0.70;;;;;;;;;;5094418;28;20051;-83
2021/10/14 13:53:32;;;;;;;2.65;0.98;;;;;;;;;;5092719;28;20377;-83
2021/10/14 13:55:58;;;;;;;3.90;1.58;;;;;;;;;;5093929;28;20048;-82
2021/10/14 13:58:24;;;;;;;3.25;1.13;;;;;;;;;;5093499;28;20485;-82
2021/10/14 14:00:51;;;;;;;2.10;1.08;;;;;;;;;;5092292;28;20352;-81
2021/10/14 14:03:17;;;;;;;2.13;0.90;;;;;;;;;;5094013;28;20020;-81
2021/10/14 14:05:46;;;;;;;2.80;1.27;;;;;;;;;;5092350;28;20069;-82
2021/10/14 14:08:12;;;;;;;2.47;1.02;;;;;;;;;;5095572;28;20020;-83
2021/10/14 14:10:38;;;;;;;1.77;1.02;;;;;;;;;;5092672;28;20055;-81
2021/10/14 14:13:07;;;;;;;2.97;1.35;;;;;;;;;;5097154;28;20398;-82
2021/10/14 14:15:34;;;;;;;2.38;1.33;;;;;;;;;;5094514;28;20454;-84
2021/10/14 14:18:01;;;;;;;4.95;1.30;;;;;;;;;;5092508;28;20498;-83
2021/10/14 14:20:28;;;;;;;2.08;1.05;;;;;;;;;;5092358;28;20136;-89
2021/10/14 14:22:54;;;;;;;5.53;1.40;;;;;;;;;;5091690;28;20028;-87
2021/10/14 14:25:24;;;;;;;4.07;1.35;;;;;;;;;;5092599;28;20030;-86
2021/10/14 14:27:50;;;;;;;3.63;1.23;;;;;;;;;;5092376;28;20114;-87
2021/10/14 14:30:16;;;;;;;2.17;1.20;;;;;;;;;;5092234;28;20084;-84
2021/10/14 14:32:42;;;;;;;3.72;1.10;;;;;;;;;;5092277;28;20039;-85
2021/10/14 14:35:09;;;;;;;6.03;1.20;;;;;;;;;;5092245;28;20097;-83
2021/10/14 14:37:35;;;;;;;3.58;1.52;;;;;;;;;;5092328;28;20028;-84
2021/10/14 14:40:01;;;;;;;2.55;1.15;;;;;;;;;;5093290;28;20032;-85
2021/10/14 14:42:28;;;;;;;4.85;1.15;;;;;;;;;;5092779;28;20060;-85
2021/10/14 14:44:54;;;;;;;3.30;1.40;;;;;;;;;;5092429;28;20567;-85
2021/10/14 14:47:20;;;;;;;3.83;1.23;;;;;;;;;;5092482;28;20480;-88
2021/10/14 14:49:49;;;;;;;3.03;0.95;;;;;;;;;;5092360;28;20025;-86